sensor_id;sensor_type;location;lat;lon;timestamp;pressure;altitude;pressure_sealevel;temperature;humidity
11038;BME280;5572;49.540;11.932;2023-04-24T00:00:25;95391.91;;;10.35;100.00
11038;BME280;5572;49.540;11.932;2023-04-24T00:02:52;95381.41;;;10.59;100.00
11038;BME280;5572;49.540;11.932;2023-04-24T00:05:22;95394.59;;;10.43;100.00
11038;BME280;5572;49.540;11.932;2023-04-24T00:07:49;95403.34;;;10.49;100.00
11038;BME280;5572;49.540;11.932;2023-04-24T00:10:18;95402.75;;;10.60;100.00
11038;BME280;5572;49.540;11.932;2023-04-24T00:12:44;95395.09;;;10.71;100.00
11038;BME280;5572;49.540;11.932;2023-04-24T00:15:12;95403.19;;;10.45;100.00
11038;BME280;5572;49.540;11.932;2023-04-24T00:17:39;95391.59;;;10.53;100.00
11038;BME280;5572;49.540;11.932;2023-04-24T00:20:06;95384.63;;;10.52;100.00
11038;BME280;5572;49.540;11.932;2023-04-24T00:22:33;95392.88;;;10.56;100.00
11038;BME280;5572;49.540;11.932;2023-04-24T00:24:59;95377.78;;;10.55;100.00
11038;BME280;5572;49.540;11.932;2023-04-24T00:27:26;95375.53;;;10.65;100.00
11038;BME280;5572;49.540;11.932;2023-04-24T00:29:53;95378.56;;;10.55;100.00
11038;BME280;5572;49.540;11.932;2023-04-24T00:32:21;95385.72;;;10.51;100.00
11038;BME280;5572;49.540;11.932;2023-04-24T00:34:47;95383.31;;;10.50;100.00
11038;BME280;5572;49.540;11.932;2023-04-24T00:37:14;95376.97;;;10.46;100.00
11038;BME280;5572;49.540;11.932;2023-04-24T00:39:41;95369.38;;;10.48;100.00
11038;BME280;5572;49.540;11.932;2023-04-24T00:42:07;95359.03;;;10.41;100.00
11038;BME280;5572;49.540;11.932;2023-04-24T00:44:34;95366.03;;;10.42;100.00
11038;BME280;5572;49.540;11.932;2023-04-24T00:47:01;95359.34;;;10.48;100.00
11038;BME280;5572;49.540;11.932;2023-04-24T00:49:29;95356.16;;;10.63;100.00
11038;BME280;5572;49.540;11.932;2023-04-24T00:51:56;95367.75;;;10.55;100.00
11038;BME280;5572;49.540;11.932;2023-04-24T00:54:24;95363.78;;;10.61;100.00
11038;BME280;5572;49.540;11.932;2023-04-24T00:56:51;95366.16;;;10.37;100.00
11038;BME280;5572;49.540;11.932;2023-04-24T00:59:18;95372.53;;;10.41;100.00
11038;BME280;5572;49.540;11.932;2023-04-24T01:01:45;95368.25;;;10.40;100.00
11038;BME280;5572;49.540;11.932;2023-04-24T01:04:12;95384.28;;;10.37;100.00
11038;BME280;5572;49.540;11.932;2023-04-24T01:06:42;95379.19;;;10.27;100.00
11038;BME280;5572;49.540;11.932;2023-04-24T01:09:10;95369.97;;;10.36;100.00
11038;BME280;5572;49.540;11.932;2023-04-24T01:11:38;95369.69;;;10.38;100.00
11038;BME280;5572;49.540;11.932;2023-04-24T01:14:04;95373.19;;;10.47;100.00
11038;BME280;5572;49.540;11.932;2023-04-24T01:16:31;95366.81;;;10.51;100.00
11038;BME280;5572;49.540;11.932;2023-04-24T01:18:58;95396.84;;;10.41;100.00
11038;BME280;5572;49.540;11.932;2023-04-24T01:21:26;95427.66;;;10.40;100.00
11038;BME280;5572;49.540;11.932;2023-04-24T01:23:55;95441.16;;;10.40;100.00
11038;BME280;5572;49.540;11.932;2023-04-24T01:26:22;95781.53;;;10.40;100.00
11038;BME280;5572;49.540;11.932;2023-04-24T01:28:51;95939.19;;;10.44;100.00
11038;BME280;5572;49.540;11.932;2023-04-24T01:31:17;95989.47;;;10.32;100.00
11038;BME280;5572;49.540;11.932;2023-04-24T01:33:44;96007.25;;;10.33;100.00
11038;BME280;5572;49.540;11.932;2023-04-24T01:36:11;96001.75;;;10.25;100.00
11038;BME280;5572;49.540;11.932;2023-04-24T01:38:38;95998.78;;;10.13;100.00
11038;BME280;5572;49.540;11.932;2023-04-24T01:41:06;96002.66;;;10.07;100.00
11038;BME280;5572;49.540;11.932;2023-04-24T01:43:33;96009.16;;;10.06;100.00
11038;BME280;5572;49.540;11.932;2023-04-24T01:46:00;96011.84;;;10.06;100.00
11038;BME280;5572;49.540;11.932;2023-04-24T01:48:27;96004.53;;;9.93;100.00
11038;BME280;5572;49.540;11.932;2023-04-24T01:50:53;95994.53;;;9.93;100.00
11038;BME280;5572;49.540;11.932;2023-04-24T01:53:20;95995.03;;;9.95;100.00
11038;BME280;5572;49.540;11.932;2023-04-24T01:55:47;95994.53;;;9.93;100.00
11038;BME280;5572;49.540;11.932;2023-04-24T01:58:14;95996.28;;;10.03;100.00
11038;BME280;5572;49.540;11.932;2023-04-24T02:00:41;95993.09;;;9.82;100.00
11038;BME280;5572;49.540;11.932;2023-04-24T02:03:08;96016.91;;;9.94;100.00
11038;BME280;5572;49.540;11.932;2023-04-24T02:05:43;96009.25;;;10.01;100.00
11038;BME280;5572;49.540;11.932;2023-04-24T02:08:10;96017.69;;;10.13;100.00
11038;BME280;5572;49.540;11.932;2023-04-24T02:10:36;96024.38;;;10.02;100.00
11038;BME280;5572;49.540;11.932;2023-04-24T02:13:03;96028.59;;;9.89;100.00
11038;BME280;5572;49.540;11.932;2023-04-24T02:15:31;96027.09;;;9.83;100.00
11038;BME280;5572;49.540;11.932;2023-04-24T02:17:58;96021.38;;;9.71;100.00
11038;BME280;5572;49.540;11.932;2023-04-24T02:20:25;96020.59;;;9.71;100.00
11038;BME280;5572;49.540;11.932;2023-04-24T02:22:51;96024.38;;;9.70;100.00
11038;BME280;5572;49.540;11.932;2023-04-24T02:25:18;96031.09;;;9.86;100.00
11038;BME280;5572;49.540;11.932;2023-04-24T02:27:45;96042.50;;;9.83;100.00
11038;BME280;5572;49.540;11.932;2023-04-24T02:30:12;96036.22;;;9.87;100.00
11038;BME280;5572;49.540;11.932;2023-04-24T02:32:40;96030.47;;;9.75;100.00
11038;BME280;5572;49.540;11.932;2023-04-24T02:35:07;96027.28;;;9.73;100.00
11038;BME280;5572;49.540;11.932;2023-04-24T02:37:34;96035.06;;;9.75;100.00
11038;BME280;5572;49.540;11.932;2023-04-24T02:40:01;96038.66;;;9.70;100.00
11038;BME280;5572;49.540;11.932;2023-04-24T02:42:27;96030.56;;;9.70;100.00
11038;BME280;5572;49.540;11.932;2023-04-24T02:44:54;96041.78;;;9.77;100.00
11038;BME280;5572;49.540;11.932;2023-04-24T02:47:21;96040.38;;;9.80;100.00
11038;BME280;5572;49.540;11.932;2023-04-24T02:49:49;96049.09;;;9.90;100.00
11038;BME280;5572;49.540;11.932;2023-04-24T02:52:15;96043.84;;;9.99;100.00
11038;BME280;5572;49.540;11.932;2023-04-24T02:54:42;96045.16;;;10.01;100.00
11038;BME280;5572;49.540;11.932;2023-04-24T02:57:09;96041.69;;;10.14;100.00
11038;BME280;5572;49.540;11.932;2023-04-24T02:59:35;96042.56;;;10.10;100.00
11038;BME280;5572;49.540;11.932;2023-04-24T03:02:02;96040.78;;;10.19;100.00
11038;BME280;5572;49.540;11.932;2023-04-24T03:04:28;96030.75;;;10.19;100.00
11038;BME280;5572;49.540;11.932;2023-04-24T03:06:56;96025.47;;;10.14;100.00
11038;BME280;5572;49.540;11.932;2023-04-24T03:09:24;96030.16;;;10.22;100.00
11038;BME280;5572;49.540;11.932;2023-04-24T03:11:50;96041.75;;;10.09;100.00
11038;BME280;5572;49.540;11.932;2023-04-24T03:14:17;96028.69;;;10.16;100.00
11038;BME280;5572;49.540;11.932;2023-04-24T03:16:43;96029.25;;;10.00;100.00
11038;BME280;5572;49.540;11.932;2023-04-24T03:19:10;96023.44;;;9.93;100.00
11038;BME280;5572;49.540;11.932;2023-04-24T03:21:36;96031.13;;;9.99;100.00
11038;BME280;5572;49.540;11.932;2023-04-24T03:24:07;96020.25;;;10.04;100.00
11038;BME280;5572;49.540;11.932;2023-04-24T03:26:33;96021.72;;;9.97;100.00
11038;BME280;5572;49.540;11.932;2023-04-24T03:29:00;96031.41;;;9.98;100.00
11038;BME280;5572;49.540;11.932;2023-04-24T03:31:26;96025.47;;;10.01;100.00
11038;BME280;5572;49.540;11.932;2023-04-24T03:33:53;96023.31;;;9.98;100.00
11038;BME280;5572;49.540;11.932;2023-04-24T03:36:19;96021.31;;;9.90;100.00
11038;BME280;5572;49.540;11.932;2023-04-24T03:38:46;96009.81;;;9.98;100.00
11038;BME280;5572;49.540;11.932;2023-04-24T03:41:14;96010.19;;;9.78;100.00
11038;BME280;5572;49.540;11.932;2023-04-24T03:43:40;96006.28;;;9.84;100.00
11038;BME280;5572;49.540;11.932;2023-04-24T03:46:07;96019.72;;;9.89;100.00
11038;BME280;5572;49.540;11.932;2023-04-24T03:48:34;96024.72;;;9.82;100.00
11038;BME280;5572;49.540;11.932;2023-04-24T03:51:01;96032.50;;;9.83;100.00
11038;BME280;5572;49.540;11.932;2023-04-24T03:53:27;96037.59;;;9.85;100.00
11038;BME280;5572;49.540;11.932;2023-04-24T03:55:54;96041.88;;;9.86;100.00
11038;BME280;5572;49.540;11.932;2023-04-24T03:58:22;96049.09;;;9.90;100.00
11038;BME280;5572;49.540;11.932;2023-04-24T04:00:49;96060.09;;;9.94;100.00
11038;BME280;5572;49.540;11.932;2023-04-24T04:03:16;96053.97;;;9.88;100.00
11038;BME280;5572;49.540;11.932;2023-04-24T04:05:42;96055.81;;;9.93;100.00
11038;BME280;5572;49.540;11.932;2023-04-24T04:08:09;96060.25;;;10.02;100.00
11038;BME280;5572;49.540;11.932;2023-04-24T04:10:36;96061.06;;;10.03;100.00
11038;BME280;5572;49.540;11.932;2023-04-24T04:13:02;96059.47;;;10.02;100.00
11038;BME280;5572;49.540;11.932;2023-04-24T04:15:30;96062.38;;;10.05;100.00
11038;BME280;5572;49.540;11.932;2023-04-24T04:17:56;96063.34;;;10.09;100.00
11038;BME280;5572;49.540;11.932;2023-04-24T04:20:23;96060.06;;;10.12;100.00
11038;BME280;5572;49.540;11.932;2023-04-24T04:22:50;96064.28;;;10.18;100.00
11038;BME280;5572;49.540;11.932;2023-04-24T04:25:16;96063.97;;;10.20;100.00
11038;BME280;5572;49.540;11.932;2023-04-24T04:27:44;96054.06;;;10.15;100.00
11038;BME280;5572;49.540;11.932;2023-04-24T04:30:13;96057.69;;;10.11;100.00
11038;BME280;5572;49.540;11.932;2023-04-24T04:32:41;96049.66;;;10.06;100.00
11038;BME280;5572;49.540;11.932;2023-04-24T04:35:07;96034.66;;;10.00;100.00
11038;BME280;5572;49.540;11.932;2023-04-24T04:37:34;96039.50;;;9.98;100.00
11038;BME280;5572;49.540;11.932;2023-04-24T04:40:02;96029.31;;;9.95;100.00
11038;BME280;5572;49.540;11.932;2023-04-24T04:42:32;96024.13;;;9.98;100.00
11038;BME280;5572;49.540;11.932;2023-04-24T04:44:59;96024.41;;;9.97;100.00
11038;BME280;5572;49.540;11.932;2023-04-24T04:47:27;96031.66;;;10.01;100.00
11038;BME280;5572;49.540;11.932;2023-04-24T04:49:58;96035.38;;;10.05;100.00
11038;BME280;5572;49.540;11.932;2023-04-24T04:52:24;96039.88;;;10.10;100.00
11038;BME280;5572;49.540;11.932;2023-04-24T04:54:51;96040.16;;;10.08;100.00
11038;BME280;5572;49.540;11.932;2023-04-24T04:57:18;96035.16;;;10.02;100.00
11038;BME280;5572;49.540;11.932;2023-04-24T04:59:45;96046.75;;;10.02;100.00
11038;BME280;5572;49.540;11.932;2023-04-24T05:02:12;96042.38;;;10.06;100.00
11038;BME280;5572;49.540;11.932;2023-04-24T05:04:39;96045.66;;;10.03;100.00
11038;BME280;5572;49.540;11.932;2023-04-24T05:07:06;96054.34;;;10.00;100.00
11038;BME280;5572;49.540;11.932;2023-04-24T05:09:33;96052.06;;;10.07;100.00
11038;BME280;5572;49.540;11.932;2023-04-24T05:11:59;96062.25;;;10.10;100.00
11038;BME280;5572;49.540;11.932;2023-04-24T05:14:27;96064.50;;;10.22;100.00
11038;BME280;5572;49.540;11.932;2023-04-24T05:16:53;96077.19;;;10.21;100.00
11038;BME280;5572;49.540;11.932;2023-04-24T05:19:20;96082.31;;;10.23;100.00
11038;BME280;5572;49.540;11.932;2023-04-24T05:21:46;96092.41;;;10.30;100.00
11038;BME280;5572;49.540;11.932;2023-04-24T05:24:14;96084.91;;;10.27;100.00
11038;BME280;5572;49.540;11.932;2023-04-24T05:26:41;96093.81;;;10.41;100.00
11038;BME280;5572;49.540;11.932;2023-04-24T05:29:07;96101.22;;;10.49;100.00
11038;BME280;5572;49.540;11.932;2023-04-24T05:31:34;96107.53;;;10.58;100.00
11038;BME280;5572;49.540;11.932;2023-04-24T05:34:00;96107.72;;;10.62;100.00
11038;BME280;5572;49.540;11.932;2023-04-24T05:36:27;96093.44;;;10.61;100.00
11038;BME280;5572;49.540;11.932;2023-04-24T05:38:53;96100.44;;;10.62;100.00
11038;BME280;5572;49.540;11.932;2023-04-24T05:41:22;96102.72;;;10.55;100.00
11038;BME280;5572;49.540;11.932;2023-04-24T05:43:48;96105.81;;;10.89;100.00
11038;BME280;5572;49.540;11.932;2023-04-24T05:46:15;96128.41;;;11.33;100.00
11038;BME280;5572;49.540;11.932;2023-04-24T05:48:41;96110.25;;;11.34;100.00
11038;BME280;5572;49.540;11.932;2023-04-24T05:51:09;96086.81;;;11.29;100.00
11038;BME280;5572;49.540;11.932;2023-04-24T05:53:35;96084.56;;;11.45;100.00
11038;BME280;5572;49.540;11.932;2023-04-24T05:56:02;96081.56;;;11.68;100.00
11038;BME280;5572;49.540;11.932;2023-04-24T05:58:30;96065.22;;;11.73;100.00
11038;BME280;5572;49.540;11.932;2023-04-24T06:00:56;96052.59;;;11.91;100.00
11038;BME280;5572;49.540;11.932;2023-04-24T06:03:23;96065.09;;;12.30;100.00
11038;BME280;5572;49.540;11.932;2023-04-24T06:05:50;96053.88;;;12.54;100.00
11038;BME280;5572;49.540;11.932;2023-04-24T06:08:17;96057.56;;;13.13;100.00
11038;BME280;5572;49.540;11.932;2023-04-24T06:10:43;96068.31;;;12.80;100.00
11038;BME280;5572;49.540;11.932;2023-04-24T06:13:10;96040.88;;;12.81;100.00
11038;BME280;5572;49.540;11.932;2023-04-24T06:15:38;96020.91;;;12.77;100.00
11038;BME280;5572;49.540;11.932;2023-04-24T06:18:06;96009.56;;;12.58;100.00
11038;BME280;5572;49.540;11.932;2023-04-24T06:20:32;95983.13;;;12.72;100.00
11038;BME280;5572;49.540;11.932;2023-04-24T06:22:59;95982.47;;;12.84;100.00
11038;BME280;5572;49.540;11.932;2023-04-24T06:25:25;95961.06;;;12.65;100.00
11038;BME280;5572;49.540;11.932;2023-04-24T06:27:52;95934.94;;;12.86;100.00
11038;BME280;5572;49.540;11.932;2023-04-24T06:30:19;95918.06;;;13.14;100.00
11038;BME280;5572;49.540;11.932;2023-04-24T06:32:47;95911.19;;;12.91;100.00
11038;BME280;5572;49.540;11.932;2023-04-24T06:35:14;95897.63;;;13.00;100.00
11038;BME280;5572;49.540;11.932;2023-04-24T06:37:42;95890.19;;;13.60;100.00
11038;BME280;5572;49.540;11.932;2023-04-24T06:40:09;95885.00;;;13.21;100.00
11038;BME280;5572;49.540;11.932;2023-04-24T06:42:36;95874.50;;;13.65;100.00
11038;BME280;5572;49.540;11.932;2023-04-24T06:45:03;95785.56;;;13.54;100.00
11038;BME280;5572;49.540;11.932;2023-04-24T06:47:30;95767.34;;;13.25;100.00
11038;BME280;5572;49.540;11.932;2023-04-24T06:49:58;95722.84;;;13.09;100.00
11038;BME280;5572;49.540;11.932;2023-04-24T06:52:25;95713.38;;;13.24;100.00
11038;BME280;5572;49.540;11.932;2023-04-24T06:54:51;95700.50;;;13.12;100.00
11038;BME280;5572;49.540;11.932;2023-04-24T06:57:18;95661.50;;;13.25;100.00
11038;BME280;5572;49.540;11.932;2023-04-24T06:59:46;95643.16;;;13.72;100.00
11038;BME280;5572;49.540;11.932;2023-04-24T07:02:12;95644.72;;;14.34;100.00
11038;BME280;5572;49.540;11.932;2023-04-24T07:04:39;95616.16;;;14.72;100.00
11038;BME280;5572;49.540;11.932;2023-04-24T07:07:08;95602.41;;;16.03;100.00
11038;BME280;5572;49.540;11.932;2023-04-24T07:09:38;95532.97;;;16.13;100.00
11038;BME280;5572;49.540;11.932;2023-04-24T07:12:06;95469.66;;;14.98;100.00
11038;BME280;5572;49.540;11.932;2023-04-24T07:14:33;95405.38;;;14.30;100.00
11038;BME280;5572;49.540;11.932;2023-04-24T07:17:00;95363.56;;;14.35;100.00
11038;BME280;5572;49.540;11.932;2023-04-24T07:19:26;95381.19;;;13.93;100.00
11038;BME280;5572;49.540;11.932;2023-04-24T07:21:52;95348.94;;;14.78;100.00
11038;BME280;5572;49.540;11.932;2023-04-24T07:24:21;95335.19;;;14.48;100.00
11038;BME280;5572;49.540;11.932;2023-04-24T07:26:48;95314.28;;;15.03;100.00
11038;BME280;5572;49.540;11.932;2023-04-24T07:29:14;95371.56;;;14.43;100.00
11038;BME280;5572;49.540;11.932;2023-04-24T07:31:41;95369.31;;;14.57;100.00
11038;BME280;5572;49.540;11.932;2023-04-24T07:34:07;95378.47;;;13.93;100.00
11038;BME280;5572;49.540;11.932;2023-04-24T07:36:34;95384.50;;;13.98;100.00
11038;BME280;5572;49.540;11.932;2023-04-24T07:39:01;95378.00;;;13.79;100.00
11038;BME280;5572;49.540;11.932;2023-04-24T07:41:29;95370.56;;;13.76;100.00
11038;BME280;5572;49.540;11.932;2023-04-24T07:43:55;95377.97;;;13.55;100.00
11038;BME280;5572;49.540;11.932;2023-04-24T07:46:22;95403.50;;;13.10;100.00
11038;BME280;5572;49.540;11.932;2023-04-24T07:48:50;95399.97;;;13.09;100.00
11038;BME280;5572;49.540;11.932;2023-04-24T07:51:16;95405.84;;;12.71;100.00
11038;BME280;5572;49.540;11.932;2023-04-24T07:53:43;95410.88;;;12.81;100.00
11038;BME280;5572;49.540;11.932;2023-04-24T07:56:09;95436.34;;;12.39;100.00
11038;BME280;5572;49.540;11.932;2023-04-24T07:58:37;95429.25;;;12.75;100.00
11038;BME280;5572;49.540;11.932;2023-04-24T08:11:16;95380.69;;;13.55;100.00
11038;BME280;5572;49.540;11.932;2023-04-24T08:13:44;95382.75;;;13.70;100.00
11038;BME280;5572;49.540;11.932;2023-04-24T08:16:11;95420.97;;;13.53;100.00
11038;BME280;5572;49.540;11.932;2023-04-24T08:18:37;95431.97;;;13.69;100.00
11038;BME280;5572;49.540;11.932;2023-04-24T08:21:04;95439.84;;;13.50;100.00
11038;BME280;5572;49.540;11.932;2023-04-24T08:23:32;95469.34;;;13.51;100.00
11038;BME280;5572;49.540;11.932;2023-04-24T08:25:58;95469.84;;;13.97;100.00
11038;BME280;5572;49.540;11.932;2023-04-24T08:28:25;95480.03;;;13.56;100.00
11038;BME280;5572;49.540;11.932;2023-04-24T08:30:53;95485.66;;;14.28;100.00
11038;BME280;5572;49.540;11.932;2023-04-24T08:33:20;95478.34;;;14.08;100.00
11038;BME280;5572;49.540;11.932;2023-04-24T08:35:47;95501.41;;;13.90;100.00
11038;BME280;5572;49.540;11.932;2023-04-24T08:38:13;95466.09;;;15.33;100.00
11038;BME280;5572;49.540;11.932;2023-04-24T08:40:40;95457.97;;;15.49;100.00
11038;BME280;5572;49.540;11.932;2023-04-24T08:43:07;95454.28;;;14.78;100.00
11038;BME280;5572;49.540;11.932;2023-04-24T08:45:34;95446.81;;;14.27;100.00
11038;BME280;5572;49.540;11.932;2023-04-24T08:48:04;95429.16;;;15.48;100.00
11038;BME280;5572;49.540;11.932;2023-04-24T08:50:31;95401.94;;;14.57;100.00
11038;BME280;5572;49.540;11.932;2023-04-24T08:52:58;95423.94;;;13.72;100.00
11038;BME280;5572;49.540;11.932;2023-04-24T08:55:25;95416.25;;;13.74;100.00
11038;BME280;5572;49.540;11.932;2023-04-24T08:57:52;95412.59;;;14.14;100.00
11038;BME280;5572;49.540;11.932;2023-04-24T09:00:20;95412.34;;;14.55;100.00
11038;BME280;5572;49.540;11.932;2023-04-24T09:02:49;95397.69;;;14.83;100.00
11038;BME280;5572;49.540;11.932;2023-04-24T09:05:18;95404.25;;;14.94;100.00
11038;BME280;5572;49.540;11.932;2023-04-24T09:07:45;95407.59;;;14.64;100.00
11038;BME280;5572;49.540;11.932;2023-04-24T09:10:15;95427.44;;;14.64;100.00
11038;BME280;5572;49.540;11.932;2023-04-24T09:12:42;95403.91;;;14.84;100.00
11038;BME280;5572;49.540;11.932;2023-04-24T09:15:10;95417.94;;;13.67;100.00
11038;BME280;5572;49.540;11.932;2023-04-24T09:17:37;95419.38;;;14.56;100.00
11038;BME280;5572;49.540;11.932;2023-04-24T09:20:05;95379.50;;;15.39;100.00
11038;BME280;5572;49.540;11.932;2023-04-24T09:22:34;95435.66;;;13.96;100.00
11038;BME280;5572;49.540;11.932;2023-04-24T09:25:02;95464.38;;;13.85;100.00
11038;BME280;5572;49.540;11.932;2023-04-24T09:27:31;95476.47;;;13.88;100.00
11038;BME280;5572;49.540;11.932;2023-04-24T09:29:58;95490.19;;;13.47;100.00
11038;BME280;5572;49.540;11.932;2023-04-24T09:32:25;95510.44;;;13.50;100.00
11038;BME280;5572;49.540;11.932;2023-04-24T09:35:06;95531.94;;;13.14;100.00
11038;BME280;5572;49.540;11.932;2023-04-24T09:37:36;95511.63;;;13.73;100.00
11038;BME280;5572;49.540;11.932;2023-04-24T09:40:24;95513.16;;;13.50;100.00
11038;BME280;5572;49.540;11.932;2023-04-24T09:42:52;95517.63;;;13.98;100.00
11038;BME280;5572;49.540;11.932;2023-04-24T09:45:19;95542.69;;;13.83;100.00
11038;BME280;5572;49.540;11.932;2023-04-24T09:47:51;95571.34;;;13.40;100.00
11038;BME280;5572;49.540;11.932;2023-04-24T09:50:18;95561.06;;;14.19;100.00
11038;BME280;5572;49.540;11.932;2023-04-24T09:52:47;95576.97;;;14.08;100.00
11038;BME280;5572;49.540;11.932;2023-04-24T09:55:21;95586.69;;;13.57;100.00
11038;BME280;5572;49.540;11.932;2023-04-24T09:57:49;95580.91;;;13.99;100.00
11038;BME280;5572;49.540;11.932;2023-04-24T10:00:24;95588.72;;;13.19;100.00
11038;BME280;5572;49.540;11.932;2023-04-24T10:02:56;95556.25;;;14.36;100.00
11038;BME280;5572;49.540;11.932;2023-04-24T10:05:30;95505.72;;;14.83;100.00
11038;BME280;5572;49.540;11.932;2023-04-24T10:08:00;95495.94;;;15.18;100.00
11038;BME280;5572;49.540;11.932;2023-04-24T10:10:28;95520.00;;;14.44;100.00
11038;BME280;5572;49.540;11.932;2023-04-24T10:12:55;95518.84;;;14.33;100.00
11038;BME280;5572;49.540;11.932;2023-04-24T10:15:21;95521.59;;;14.69;100.00
11038;BME280;5572;49.540;11.932;2023-04-24T10:17:49;95538.47;;;14.06;100.00
11038;BME280;5572;49.540;11.932;2023-04-24T10:20:19;95541.16;;;14.27;100.00
11038;BME280;5572;49.540;11.932;2023-04-24T10:22:47;95521.59;;;14.57;100.00
11038;BME280;5572;49.540;11.932;2023-04-24T10:25:19;95524.53;;;14.64;100.00
11038;BME280;5572;49.540;11.932;2023-04-24T10:27:46;95531.78;;;14.84;100.00
11038;BME280;5572;49.540;11.932;2023-04-24T10:30:14;95560.13;;;14.59;100.00
11038;BME280;5572;49.540;11.932;2023-04-24T10:32:41;95566.75;;;14.38;100.00
11038;BME280;5572;49.540;11.932;2023-04-24T10:35:08;95568.50;;;14.42;100.00
11038;BME280;5572;49.540;11.932;2023-04-24T10:37:37;95564.41;;;14.48;100.00
11038;BME280;5572;49.540;11.932;2023-04-24T10:40:05;95576.56;;;13.86;100.00
11038;BME280;5572;49.540;11.932;2023-04-24T10:42:35;95609.06;;;13.94;100.00
11038;BME280;5572;49.540;11.932;2023-04-24T10:45:05;95600.03;;;14.23;100.00
11038;BME280;5572;49.540;11.932;2023-04-24T10:47:39;95598.31;;;13.98;100.00
11038;BME280;5572;49.540;11.932;2023-04-24T10:50:08;95579.94;;;13.83;100.00
11038;BME280;5572;49.540;11.932;2023-04-24T10:52:45;95570.84;;;14.32;100.00
11038;BME280;5572;49.540;11.932;2023-04-24T10:55:12;95532.50;;;14.81;100.00
11038;BME280;5572;49.540;11.932;2023-04-24T10:58:01;95508.56;;;14.63;100.00
11038;BME280;5572;49.540;11.932;2023-04-24T11:03:00;95544.00;;;14.30;100.00
11038;BME280;5572;49.540;11.932;2023-04-24T11:05:49;95575.69;;;13.94;100.00
11038;BME280;5572;49.540;11.932;2023-04-24T11:08:22;95547.56;;;14.10;100.00
11038;BME280;5572;49.540;11.932;2023-04-24T11:10:55;95545.69;;;14.23;100.00
11038;BME280;5572;49.540;11.932;2023-04-24T11:13:25;95514.56;;;14.44;100.00
11038;BME280;5572;49.540;11.932;2023-04-24T11:16:13;95487.81;;;14.34;100.00
11038;BME280;5572;49.540;11.932;2023-04-24T11:18:41;95447.44;;;14.84;100.00
11038;BME280;5572;49.540;11.932;2023-04-24T11:21:11;95414.22;;;15.42;100.00
11038;BME280;5572;49.540;11.932;2023-04-24T11:23:38;95362.59;;;15.76;100.00
11038;BME280;5572;49.540;11.932;2023-04-24T11:26:13;95398.56;;;14.87;100.00
11038;BME280;5572;49.540;11.932;2023-04-24T11:28:48;95417.13;;;14.70;100.00
11038;BME280;5572;49.540;11.932;2023-04-24T11:31:44;95361.03;;;15.32;100.00
11038;BME280;5572;49.540;11.932;2023-04-24T11:34:14;95362.94;;;15.04;100.00
11038;BME280;5572;49.540;11.932;2023-04-24T11:36:43;95351.78;;;15.64;100.00
11038;BME280;5572;49.540;11.932;2023-04-24T11:39:10;95272.41;;;15.50;100.00
11038;BME280;5572;49.540;11.932;2023-04-24T11:41:37;95192.03;;;15.56;100.00
11038;BME280;5572;49.540;11.932;2023-04-24T11:44:06;95121.97;;;16.10;100.00
11038;BME280;5572;49.540;11.932;2023-04-24T11:46:33;95094.13;;;15.29;100.00
11038;BME280;5572;49.540;11.932;2023-04-24T11:49:00;95128.13;;;15.53;100.00
11038;BME280;5572;49.540;11.932;2023-04-24T11:51:27;95197.75;;;14.77;100.00
11038;BME280;5572;49.540;11.932;2023-04-24T11:53:54;95311.53;;;14.48;100.00
11038;BME280;5572;49.540;11.932;2023-04-24T12:47:50;95343.91;;;15.32;100.00
11038;BME280;5572;49.540;11.932;2023-04-24T13:56:28;95730.19;;;13.09;100.00
11038;BME280;5572;49.540;11.932;2023-04-24T14:02:47;95786.69;;;13.07;100.00
11038;BME280;5572;49.540;11.932;2023-04-24T14:05:16;95781.47;;;13.02;100.00
11038;BME280;5572;49.540;11.932;2023-04-24T14:38:48;95754.78;;;13.50;100.00
11038;BME280;5572;49.540;11.932;2023-04-24T14:41:15;95716.81;;;14.11;100.00
11038;BME280;5572;49.540;11.932;2023-04-24T14:43:42;95741.25;;;13.70;100.00
11038;BME280;5572;49.540;11.932;2023-04-24T14:46:09;95753.44;;;13.84;100.00
11038;BME280;5572;49.540;11.932;2023-04-24T14:48:36;95784.41;;;13.63;100.00
11038;BME280;5572;49.540;11.932;2023-04-24T14:51:03;95785.50;;;13.33;100.00
11038;BME280;5572;49.540;11.932;2023-04-24T14:53:29;95810.50;;;12.93;100.00
11038;BME280;5572;49.540;11.932;2023-04-24T14:55:57;95791.91;;;13.29;100.00
11038;BME280;5572;49.540;11.932;2023-04-24T14:58:24;95804.84;;;13.23;100.00
11038;BME280;5572;49.540;11.932;2023-04-24T15:00:51;95791.88;;;13.37;100.00
11038;BME280;5572;49.540;11.932;2023-04-24T15:03:19;95790.19;;;13.62;100.00
11038;BME280;5572;49.540;11.932;2023-04-24T15:05:47;95791.72;;;13.71;100.00
11038;BME280;5572;49.540;11.932;2023-04-24T15:08:14;95802.63;;;13.63;100.00
11038;BME280;5572;49.540;11.932;2023-04-24T15:10:41;95746.09;;;14.34;100.00
11038;BME280;5572;49.540;11.932;2023-04-24T15:13:10;95803.69;;;13.70;100.00
11038;BME280;5572;49.540;11.932;2023-04-24T15:15:36;95854.31;;;13.37;100.00
11038;BME280;5572;49.540;11.932;2023-04-24T15:18:03;95835.09;;;13.51;100.00
11038;BME280;5572;49.540;11.932;2023-04-24T15:20:31;95766.91;;;13.81;100.00
11038;BME280;5572;49.540;11.932;2023-04-24T15:22:57;95713.78;;;13.72;100.00
11038;BME280;5572;49.540;11.932;2023-04-24T15:25:25;95711.38;;;13.70;100.00
11038;BME280;5572;49.540;11.932;2023-04-24T15:27:52;95670.16;;;14.09;100.00
11038;BME280;5572;49.540;11.932;2023-04-24T15:30:20;95699.19;;;13.76;100.00
11038;BME280;5572;49.540;11.932;2023-04-24T15:32:47;95692.34;;;14.19;100.00
11038;BME280;5572;49.540;11.932;2023-04-24T15:35:13;95707.84;;;14.19;100.00
11038;BME280;5572;49.540;11.932;2023-04-24T15:37:41;95724.91;;;13.99;100.00